createdAt,value
2019-03-12T08:32:34.781Z,11.25
2019-03-12T08:33:35.467Z,11.25
2019-03-12T08:34:34.787Z,11.25
2019-03-12T08:35:35.389Z,11.25
2019-03-12T08:36:34.670Z,11.25
2019-03-12T08:37:34.740Z,11.25
2019-03-12T08:38:34.748Z,11.25
2019-03-12T08:39:34.626Z,11.25
2019-03-12T08:40:34.710Z,11.25
2019-03-12T08:41:34.681Z,11.25
2019-03-12T08:42:34.686Z,11.25
2019-03-12T08:43:34.669Z,11.25
2019-03-12T08:44:37.474Z,16.88
2019-03-12T08:45:35.671Z,16.88
2019-03-12T08:46:34.637Z,16.88
2019-03-12T08:47:34.631Z,16.88
2019-03-12T08:48:34.629Z,16.88
2019-03-12T08:49:34.963Z,16.88
2019-03-12T08:50:34.626Z,16.88
2019-03-12T08:51:34.591Z,16.88
2019-03-12T08:52:34.572Z,16.88
2019-03-12T08:53:34.553Z,16.88
2019-03-12T08:54:34.575Z,16.88
2019-03-12T08:55:34.583Z,16.88
2019-03-12T08:56:34.522Z,16.88
2019-03-12T08:57:34.506Z,16.88
2019-03-12T08:58:34.417Z,16.88
2019-03-12T08:59:34.390Z,16.88
2019-03-12T09:00:34.524Z,22.50
2019-03-12T09:01:35.476Z,28.12
2019-03-12T09:02:34.479Z,22.50
2019-03-12T09:03:34.357Z,22.50
2019-03-12T09:04:34.454Z,56.25
2019-03-12T09:05:35.425Z,16.88
2019-03-12T09:06:34.488Z,16.88
2019-03-12T09:07:35.518Z,56.25
2019-03-12T09:08:34.305Z,50.62
2019-03-12T09:09:34.893Z,16.88
2019-03-12T09:10:34.415Z,16.88
2019-03-12T09:11:34.915Z,22.50
2019-03-12T09:12:34.400Z,39.38
2019-03-12T09:13:34.890Z,50.62
2019-03-12T09:14:34.350Z,16.88
2019-03-12T09:15:34.311Z,11.25
2019-03-12T09:16:34.214Z,11.25
2019-03-12T09:17:34.299Z,39.38
2019-03-12T09:18:34.309Z,16.88
2019-03-12T09:19:34.193Z,16.88
2019-03-12T09:20:34.170Z,16.88
2019-03-12T09:21:34.172Z,16.88
2019-03-12T09:22:34.150Z,16.88
2019-03-12T09:23:34.172Z,22.50
2019-03-12T09:24:34.130Z,50.62
2019-03-12T09:25:34.116Z,22.50
2019-03-12T09:26:34.111Z,33.75
2019-03-12T09:27:34.092Z,22.50
2019-03-12T09:28:34.088Z,22.50
2019-03-12T09:29:34.262Z,16.88
2019-03-12T09:30:34.048Z,22.50
2019-03-12T09:31:34.051Z,22.50
2019-03-12T09:32:34.020Z,16.88
2019-03-12T09:33:34.046Z,16.88
2019-03-12T09:34:34.010Z,22.50
2019-03-12T09:35:34.052Z,50.62
2019-03-12T09:36:34.007Z,22.50
2019-03-12T09:37:33.987Z,16.88
2019-03-12T09:38:33.973Z,22.50
2019-03-12T09:39:33.971Z,16.88
2019-03-12T09:40:33.947Z,16.88
2019-03-12T09:41:33.985Z,22.50
2019-03-12T09:42:33.928Z,28.12
2019-03-12T09:43:33.942Z,16.88
2019-03-12T09:44:33.910Z,22.50
2019-03-12T09:45:33.892Z,22.50
2019-03-12T09:46:33.888Z,22.50
2019-03-12T09:47:33.912Z,22.50
2019-03-12T09:48:33.873Z,61.88
2019-03-12T09:49:33.855Z,39.38
2019-03-12T09:50:33.828Z,61.88
2019-03-12T09:51:33.841Z,61.88
2019-03-12T09:52:33.816Z,28.12
2019-03-12T09:53:33.857Z,28.12
2019-03-12T09:54:33.795Z,61.88
2019-03-12T09:55:33.802Z,28.12
2019-03-12T09:56:33.802Z,22.50
2019-03-12T09:57:33.767Z,61.88
2019-03-12T09:58:33.743Z,73.12
2019-03-12T09:59:33.760Z,39.38
2019-03-12T10:00:33.727Z,22.50
2019-03-12T10:01:33.710Z,22.50
2019-03-12T10:02:33.708Z,78.75
2019-03-12T10:03:33.688Z,73.12
2019-03-12T10:04:33.721Z,22.50
2019-03-12T10:05:33.671Z,16.88
2019-03-12T10:06:33.667Z,16.88
2019-03-12T10:07:33.647Z,16.88
2019-03-12T10:08:33.647Z,39.38
2019-03-12T10:09:33.640Z,33.75
2019-03-12T10:10:33.642Z,22.50
2019-03-12T10:11:33.618Z,16.88
2019-03-12T10:12:33.617Z,16.88
2019-03-12T10:13:33.587Z,16.88
2019-03-12T10:14:33.568Z,11.25
2019-03-12T10:15:33.611Z,11.25
2019-03-12T10:16:33.547Z,11.25
2019-03-12T10:17:33.550Z,11.25
2019-03-12T10:18:33.537Z,16.88
2019-03-12T10:19:33.528Z,11.25
2019-03-12T10:20:33.507Z,16.88
2019-03-12T10:21:33.529Z,16.88
2019-03-12T10:22:33.548Z,16.88
2019-03-12T10:23:33.536Z,16.88
2019-03-12T10:24:33.476Z,16.88
2019-03-12T10:25:33.719Z,22.50
2019-03-12T10:26:34.068Z,101.25
2019-03-12T10:27:33.942Z,33.75
2019-03-12T10:28:33.846Z,67.50
2019-03-12T10:29:33.670Z,22.50
2019-03-12T10:30:33.621Z,22.50
2019-03-12T10:31:33.704Z,22.50
2019-03-12T10:32:33.417Z,22.50
2019-03-12T10:33:33.371Z,28.12
2019-03-12T10:34:33.355Z,28.12
2019-03-12T10:35:33.357Z,22.50
2019-03-12T10:36:33.328Z,22.50
2019-03-12T10:37:33.310Z,22.50
2019-03-12T10:38:33.359Z,22.50
2019-03-12T10:39:33.297Z,123.75
2019-03-12T10:40:33.291Z,33.75
2019-03-12T10:41:33.322Z,28.12
2019-03-12T10:42:33.265Z,28.12
2019-03-12T10:43:33.248Z,22.50
2019-03-12T10:44:33.297Z,22.50
2019-03-12T10:45:33.228Z,22.50
2019-03-12T10:46:33.217Z,22.50
2019-03-12T10:47:33.211Z,22.50
2019-03-12T10:48:33.193Z,22.50
2019-03-12T10:49:37.688Z,22.50
2019-03-12T10:50:33.219Z,22.50
2019-03-12T10:51:33.182Z,22.50
2019-03-12T10:52:33.177Z,22.50
2019-03-12T10:53:33.153Z,22.50
2019-03-12T10:54:33.128Z,67.50
2019-03-12T10:55:33.154Z,33.75
2019-03-12T10:56:33.148Z,67.50
2019-03-12T10:57:33.158Z,67.50
2019-03-12T10:58:33.092Z,67.50
2019-03-12T10:59:33.072Z,67.50
2019-03-12T11:00:33.083Z,33.75
2019-03-12T11:01:33.055Z,33.75
2019-03-12T11:02:33.051Z,50.62
2019-03-12T11:03:33.051Z,67.50
2019-03-12T11:04:33.045Z,33.75
2019-03-12T11:05:45.365Z,28.12
2019-03-12T11:06:33.990Z,45.00
2019-03-12T11:07:32.992Z,28.12
2019-03-12T11:08:32.981Z,28.12
2019-03-12T11:09:32.993Z,61.88
2019-03-12T11:10:32.947Z,28.12
2019-03-12T11:11:32.930Z,28.12
2019-03-12T11:12:32.928Z,22.50
2019-03-12T11:13:32.909Z,22.50
2019-03-12T11:14:32.909Z,22.50
2019-03-12T11:15:32.940Z,22.50
2019-03-12T11:16:32.894Z,16.88
2019-03-12T11:17:32.870Z,16.88
2019-03-12T11:18:32.870Z,16.88
2019-03-12T11:19:32.839Z,16.88
2019-03-12T11:20:32.828Z,16.88
2019-03-12T11:21:32.871Z,16.88
2019-03-12T11:22:32.883Z,16.88
2019-03-12T11:23:32.813Z,16.88
2019-03-12T11:24:32.880Z,22.50
2019-03-12T11:25:32.788Z,22.50
2019-03-12T11:26:32.772Z,22.50
2019-03-12T11:27:32.777Z,22.50
2019-03-12T11:28:32.755Z,22.50
2019-03-12T11:29:32.761Z,22.50
2019-03-12T11:30:32.800Z,22.50
2019-03-12T11:31:32.713Z,22.50
2019-03-12T11:32:32.718Z,28.12
2019-03-12T11:33:32.688Z,28.12
2019-03-12T11:34:32.693Z,28.12
2019-03-12T11:35:39.350Z,28.12
2019-03-12T11:36:33.814Z,28.12
2019-03-12T11:37:32.649Z,28.12
2019-03-12T11:38:32.657Z,33.75
2019-03-12T11:39:32.991Z,50.62
2019-03-12T11:40:33.138Z,28.12
2019-03-12T11:41:32.608Z,28.12
2019-03-12T11:42:32.678Z,50.62
2019-03-12T11:43:32.588Z,50.62
2019-03-12T11:44:32.605Z,45.00
2019-03-12T11:45:36.628Z,45.00
2019-03-12T11:46:41.674Z,50.62
2019-03-12T11:47:33.597Z,50.62
2019-03-12T11:48:32.533Z,50.62
2019-03-12T11:49:32.523Z,50.62
2019-03-12T11:50:32.514Z,50.62
2019-03-12T11:51:32.491Z,50.62
2019-03-12T11:52:32.503Z,50.62
2019-03-12T11:53:32.537Z,50.62
2019-03-12T11:54:32.469Z,50.62
2019-03-12T11:55:32.452Z,50.62
2019-03-12T11:56:32.461Z,50.62
2019-03-12T11:57:32.427Z,50.62
2019-03-12T11:58:32.443Z,50.62
2019-03-12T11:59:32.458Z,50.62
2019-03-12T12:00:32.402Z,50.62
2019-03-12T12:01:32.413Z,50.62
2019-03-12T12:02:32.377Z,56.25
2019-03-12T12:03:32.374Z,56.25
2019-03-12T12:04:32.355Z,56.25
2019-03-12T12:05:32.363Z,67.50
2019-03-12T12:06:32.380Z,61.88
2019-03-12T12:07:32.397Z,61.88
2019-03-12T12:08:32.323Z,56.25
2019-03-12T12:09:32.313Z,45.00
2019-03-12T12:10:32.301Z,45.00
2019-03-12T12:11:32.268Z,45.00
2019-03-12T12:12:32.270Z,45.00
2019-03-12T12:13:32.287Z,45.00
2019-03-12T12:14:32.270Z,45.00
2019-03-12T12:15:32.237Z,45.00
2019-03-12T12:16:32.228Z,45.00
2019-03-12T12:17:32.208Z,45.00
2019-03-12T12:18:32.236Z,45.00
2019-03-12T12:19:32.207Z,45.00
2019-03-12T12:20:32.178Z,33.75
2019-03-12T12:21:32.186Z,50.62
2019-03-12T12:22:32.151Z,45.00
2019-03-12T12:23:32.132Z,45.00
2019-03-12T12:24:32.188Z,45.00
2019-03-12T12:25:32.117Z,45.00
2019-03-12T12:26:32.112Z,45.00
2019-03-12T12:27:32.098Z,45.00
2019-03-12T12:28:32.100Z,45.00
2019-03-12T12:29:32.072Z,45.00
2019-03-12T12:30:32.100Z,45.00
2019-03-12T12:31:32.060Z,45.00
2019-03-12T12:32:32.052Z,45.00
2019-03-12T12:33:32.031Z,45.00
2019-03-12T12:34:32.015Z,45.00
2019-03-12T12:35:32.014Z,45.00
2019-03-12T12:36:32.050Z,45.00
2019-03-12T12:37:31.998Z,45.00
2019-03-12T12:38:31.966Z,45.00
2019-03-12T12:39:31.980Z,45.00
2019-03-12T12:40:31.950Z,45.00
2019-03-12T12:41:31.945Z,45.00
2019-03-12T12:42:31.966Z,45.00
2019-03-12T12:43:31.908Z,45.00
2019-03-12T12:44:31.932Z,45.00
2019-03-12T12:45:31.891Z,45.00
2019-03-12T12:46:31.888Z,45.00
2019-03-12T12:47:31.932Z,45.00
2019-03-12T12:48:31.872Z,45.00
2019-03-12T12:49:31.859Z,45.00
2019-03-12T12:50:31.836Z,45.00
2019-03-12T12:51:31.827Z,50.62
2019-03-12T12:52:31.815Z,50.62
2019-03-12T12:53:31.837Z,50.62
2019-03-12T12:54:31.950Z,50.62
2019-03-12T12:55:32.324Z,50.62
2019-03-12T12:56:31.775Z,50.62
2019-03-12T12:57:31.807Z,50.62
2019-03-12T12:58:31.749Z,50.62
2019-03-12T12:59:32.148Z,50.62
2019-03-12T13:00:31.724Z,50.62
2019-03-12T13:01:31.712Z,50.62
2019-03-12T13:02:31.746Z,50.62
2019-03-12T13:03:31.718Z,50.62
2019-03-12T13:04:31.692Z,50.62
2019-03-12T13:05:31.667Z,50.62
2019-03-12T13:06:31.655Z,50.62
2019-03-12T13:07:31.653Z,45.00
2019-03-12T13:08:31.695Z,45.00
2019-03-12T13:09:31.632Z,50.62
2019-03-12T13:10:31.612Z,50.62
2019-03-12T13:11:31.608Z,50.62
2019-03-12T13:12:31.601Z,50.62
2019-03-12T13:13:31.590Z,50.62
2019-03-12T13:14:40.909Z,50.62
2019-03-12T13:15:32.558Z,45.00
2019-03-12T13:16:31.533Z,45.00
2019-03-12T13:17:31.532Z,45.00
2019-03-12T13:18:31.536Z,45.00
2019-03-12T13:19:31.525Z,45.00
2019-03-12T13:20:31.562Z,50.62
2019-03-12T13:21:31.485Z,45.00
2019-03-12T13:22:31.497Z,50.62
2019-03-12T13:23:31.473Z,50.62
2019-03-12T13:24:31.438Z,50.62
2019-03-12T13:25:31.457Z,50.62
2019-03-12T13:26:31.446Z,50.62
2019-03-12T13:27:41.784Z,45.00
2019-03-12T13:28:32.403Z,45.00
2019-03-12T13:29:31.417Z,45.00
2019-03-12T13:30:31.437Z,39.38
2019-03-12T13:31:31.388Z,45.00
2019-03-12T13:32:31.567Z,39.38
2019-03-12T13:33:31.408Z,28.12
2019-03-12T13:34:31.350Z,16.88
2019-03-12T13:35:31.347Z,33.75
2019-03-12T13:36:31.326Z,39.38
2019-03-12T13:37:31.307Z,39.38
2019-03-12T13:38:44.726Z,39.38
2019-03-12T13:39:32.599Z,39.38
2019-03-12T13:40:31.289Z,39.38
2019-03-12T13:41:31.267Z,39.38
2019-03-12T13:42:31.334Z,39.38
2019-03-12T13:43:31.240Z,39.38
2019-03-12T13:44:31.237Z,39.38
2019-03-12T13:45:31.419Z,39.38
2019-03-12T13:46:31.389Z,39.38
2019-03-12T13:47:31.207Z,39.38
2019-03-12T13:48:31.208Z,39.38
2019-03-12T13:49:31.189Z,39.38
2019-03-12T13:50:31.171Z,39.38
2019-03-12T13:51:31.205Z,39.38
2019-03-12T13:52:31.205Z,39.38
2019-03-12T13:53:31.120Z,39.38
2019-03-12T13:54:31.163Z,39.38
2019-03-12T13:55:31.102Z,39.38
2019-03-12T13:56:31.127Z,39.38
2019-03-12T13:57:31.142Z,39.38
2019-03-12T13:58:31.094Z,45.00
2019-03-12T13:59:31.072Z,45.00
2019-03-12T14:00:33.410Z,50.62
2019-03-12T14:01:31.041Z,56.25
2019-03-12T14:02:31.028Z,61.88
2019-03-12T14:03:31.077Z,61.88
2019-03-12T14:04:31.007Z,61.88
2019-03-12T14:05:31.020Z,61.88
2019-03-12T14:06:30.998Z,61.88
2019-03-12T14:07:30.987Z,61.88
2019-03-12T14:08:30.987Z,56.25
2019-03-12T14:09:30.990Z,56.25
2019-03-12T14:10:30.955Z,56.25
2019-03-12T14:11:30.952Z,50.62
2019-03-12T14:12:30.978Z,50.62
2019-03-12T14:13:30.907Z,50.62
2019-03-12T14:14:30.890Z,50.62
2019-03-12T14:15:30.925Z,45.00
2019-03-12T14:16:30.887Z,45.00
2019-03-12T14:17:30.872Z,45.00
2019-03-12T14:18:30.910Z,45.00
2019-03-12T14:19:30.845Z,39.38
2019-03-12T14:20:30.855Z,39.38
2019-03-12T14:21:30.827Z,39.38
2019-03-12T14:22:30.808Z,39.38
2019-03-12T14:23:30.811Z,39.38
2019-03-12T14:24:30.819Z,39.38
2019-03-12T14:25:30.790Z,39.38
2019-03-12T14:26:30.869Z,39.38
2019-03-12T14:27:30.770Z,39.38
2019-03-12T14:28:30.751Z,33.75
2019-03-12T14:29:31.347Z,33.75
2019-03-12T14:30:30.730Z,33.75
2019-03-12T14:31:30.713Z,33.75
2019-03-12T14:32:30.831Z,33.75
2019-03-12T14:33:30.688Z,33.75
2019-03-12T14:34:30.691Z,33.75
2019-03-12T14:35:30.709Z,33.75
2019-03-12T14:36:30.651Z,33.75
2019-03-12T14:37:30.662Z,33.75
2019-03-12T14:38:30.667Z,33.75
2019-03-12T14:39:30.632Z,33.75
2019-03-12T14:40:30.628Z,33.75
2019-03-12T14:41:30.592Z,33.75
2019-03-12T14:42:30.592Z,33.75
2019-03-12T14:43:30.624Z,28.12
2019-03-12T14:44:30.566Z,28.12
2019-03-12T14:45:30.567Z,28.12
2019-03-12T14:46:30.555Z,33.75
2019-03-12T14:47:30.548Z,28.12
2019-03-12T14:48:30.538Z,28.12
2019-03-12T14:49:30.574Z,28.12
2019-03-12T14:50:30.514Z,28.12
2019-03-12T14:51:30.487Z,28.12
2019-03-12T14:52:30.489Z,28.12
2019-03-12T14:53:30.468Z,28.12
2019-03-12T14:54:30.467Z,28.12
2019-03-12T14:55:30.497Z,28.12
2019-03-12T14:56:30.449Z,28.12
2019-03-12T14:57:30.436Z,28.12
2019-03-12T14:58:30.415Z,28.12
2019-03-12T14:59:30.411Z,22.50
2019-03-12T15:00:30.396Z,22.50
2019-03-12T15:01:30.435Z,22.50
2019-03-12T15:02:30.370Z,22.50
2019-03-12T15:03:30.379Z,22.50
2019-03-12T15:04:30.357Z,22.50
2019-03-12T15:05:30.347Z,22.50
2019-03-12T15:06:30.332Z,22.50
2019-03-12T15:07:30.358Z,22.50
2019-03-12T15:08:30.307Z,22.50
2019-03-12T15:09:30.293Z,22.50
2019-03-12T15:10:30.292Z,22.50
2019-03-12T15:11:30.275Z,22.50
2019-03-12T15:12:30.273Z,22.50
2019-03-12T15:13:30.284Z,22.50
2019-03-12T15:14:30.261Z,22.50
2019-03-12T15:15:30.230Z,22.50
2019-03-12T15:16:30.237Z,22.50
2019-03-12T15:17:30.200Z,22.50
2019-03-12T15:18:30.235Z,22.50
2019-03-12T15:19:30.197Z,22.50
2019-03-12T15:20:30.168Z,22.50
2019-03-12T15:21:30.171Z,22.50
2019-03-12T15:22:30.187Z,22.50
2019-03-12T15:23:30.152Z,22.50
2019-03-12T15:24:30.404Z,22.50
2019-03-12T15:25:30.130Z,22.50
2019-03-12T15:26:30.171Z,22.50
2019-03-12T15:27:30.080Z,22.50
2019-03-12T15:28:30.088Z,16.88
2019-03-12T15:29:30.077Z,16.88
2019-03-12T15:30:30.087Z,16.88
2019-03-12T15:31:30.052Z,16.88
2019-03-12T15:32:30.072Z,16.88
2019-03-12T15:33:30.055Z,16.88
2019-03-12T15:34:30.042Z,16.88
2019-03-12T15:35:30.018Z,16.88
2019-03-12T15:36:30.023Z,16.88
2019-03-12T15:37:29.992Z,16.88
2019-03-12T15:38:29.970Z,16.88
2019-03-12T15:39:29.997Z,16.88
2019-03-12T15:40:30.007Z,16.88
2019-03-12T15:41:29.953Z,16.88
2019-03-12T15:42:29.915Z,11.25
2019-03-12T15:43:29.937Z,11.25
2019-03-12T15:44:29.907Z,11.25
2019-03-12T15:45:29.912Z,11.25
2019-03-12T15:46:29.956Z,11.25
2019-03-12T15:47:29.877Z,11.25
2019-03-12T15:48:29.875Z,11.25
2019-03-12T15:49:29.848Z,11.25
2019-03-12T15:50:29.847Z,11.25
2019-03-12T15:51:29.857Z,11.25
2019-03-12T15:52:29.864Z,11.25
2019-03-12T15:53:29.829Z,11.25
2019-03-12T15:54:29.812Z,11.25
2019-03-12T15:55:29.791Z,11.25
2019-03-12T15:56:29.777Z,11.25
2019-03-12T15:57:29.770Z,11.25
2019-03-12T15:58:29.811Z,11.25
2019-03-12T15:59:29.759Z,11.25
2019-03-12T16:00:29.750Z,11.25
2019-03-12T16:01:29.741Z,11.25
2019-03-12T16:02:29.707Z,11.25
2019-03-12T16:03:29.709Z,5.62
2019-03-12T16:04:29.718Z,5.62
2019-03-12T16:05:29.677Z,5.62
2019-03-12T16:06:29.680Z,5.62
2019-03-12T16:07:29.668Z,5.62
2019-03-12T16:08:29.650Z,5.62
2019-03-12T16:09:29.668Z,5.62
2019-03-12T16:10:29.640Z,5.62
2019-03-12T16:11:31.274Z,5.62
2019-03-12T16:12:29.612Z,5.62
2019-03-12T16:13:29.597Z,5.62
2019-03-12T16:14:29.596Z,5.62
2019-03-12T16:15:29.592Z,5.62
2019-03-12T16:16:29.555Z,5.62
2019-03-12T16:17:29.971Z,5.62
2019-03-12T16:18:29.535Z,5.62
2019-03-12T16:19:29.527Z,5.62
2019-03-12T16:20:29.558Z,5.62
2019-03-12T16:21:29.505Z,5.62
2019-03-12T16:22:29.489Z,5.62
2019-03-12T16:23:29.488Z,5.62
2019-03-12T16:24:29.467Z,5.62
2019-03-12T16:25:29.449Z,5.62
2019-03-12T16:26:29.506Z,0.00
2019-03-12T16:27:29.447Z,0.00
2019-03-12T16:28:29.423Z,0.00
2019-03-12T16:29:29.412Z,0.00
2019-03-12T16:30:29.414Z,0.00
2019-03-12T16:31:29.434Z,0.00
2019-03-12T16:32:29.389Z,0.00
2019-03-12T16:33:29.380Z,0.00
2019-03-12T16:34:29.372Z,0.00
2019-03-12T16:35:29.364Z,0.00
2019-03-12T16:36:29.371Z,0.00
2019-03-12T16:37:29.332Z,0.00
2019-03-12T16:38:29.424Z,0.00
2019-03-12T16:39:29.317Z,0.00
2019-03-12T16:40:29.294Z,0.00
2019-03-12T16:41:29.305Z,0.00
2019-03-12T16:42:34.986Z,0.00
2019-03-12T16:43:30.271Z,0.00
2019-03-12T16:44:29.264Z,0.00
2019-03-12T16:45:29.249Z,0.00
2019-03-12T16:46:29.231Z,0.00
2019-03-12T16:47:29.232Z,0.00
2019-03-12T16:48:29.244Z,0.00
2019-03-12T16:49:29.178Z,0.00
2019-03-12T16:50:29.201Z,0.00
2019-03-12T16:51:29.172Z,0.00
2019-03-12T16:52:29.187Z,0.00
2019-03-12T16:53:29.192Z,0.00
2019-03-12T16:54:29.153Z,0.00
2019-03-12T16:55:29.183Z,0.00
2019-03-12T16:56:29.107Z,0.00
2019-03-12T16:57:29.136Z,0.00
2019-03-12T16:58:29.100Z,0.00
2019-03-12T16:59:29.091Z,0.00
2019-03-12T17:00:29.068Z,0.00
2019-03-12T17:01:29.112Z,0.00
2019-03-12T17:02:29.049Z,0.00
2019-03-12T17:03:29.080Z,0.00
2019-03-12T17:04:29.033Z,0.00
2019-03-12T17:05:29.050Z,0.00
2019-03-12T17:06:29.008Z,0.00
2019-03-12T17:07:29.003Z,0.00
2019-03-12T17:08:29.064Z,0.00
2019-03-12T17:09:28.973Z,0.00
2019-03-12T17:10:28.984Z,0.00
2019-03-12T17:11:28.960Z,0.00
2019-03-12T17:12:28.950Z,0.00
2019-03-12T17:13:28.998Z,0.00
2019-03-12T17:14:38.242Z,0.00
2019-03-12T17:15:29.926Z,0.00
2019-03-12T17:16:28.897Z,0.00
2019-03-12T17:17:31.356Z,0.00
2019-03-12T17:18:28.867Z,0.00
2019-03-12T17:19:28.930Z,0.00
2019-03-12T17:20:28.859Z,0.00
2019-03-12T17:21:28.872Z,0.00
2019-03-12T17:22:28.887Z,0.00
2019-03-12T17:23:28.835Z,0.00
2019-03-12T17:24:28.812Z,0.00
2019-03-12T17:25:28.811Z,0.00
2019-03-12T17:26:29.380Z,0.00
2019-03-12T17:27:28.825Z,0.00
2019-03-12T17:28:28.791Z,0.00
2019-03-12T17:29:28.765Z,0.00
2019-03-12T17:30:28.762Z,0.00
2019-03-12T17:31:28.745Z,0.00
2019-03-12T17:32:28.745Z,0.00
2019-03-12T17:33:28.772Z,0.00
2019-03-12T17:34:35.931Z,0.00
2019-03-12T17:35:29.688Z,0.00
2019-03-12T17:36:28.753Z,0.00
2019-03-12T17:37:28.675Z,0.00
2019-03-12T17:38:41.527Z,0.00
2019-03-12T17:39:29.725Z,0.00
2019-03-12T17:40:28.637Z,0.00
2019-03-12T17:41:28.666Z,0.00
2019-03-12T17:42:28.597Z,0.00
2019-03-12T17:43:28.633Z,0.00
2019-03-12T17:44:28.619Z,0.00
2019-03-12T17:45:28.652Z,0.00
2019-03-12T17:46:28.572Z,0.00
2019-03-12T17:47:28.570Z,0.00
2019-03-12T17:48:28.563Z,0.00
2019-03-12T17:49:28.534Z,0.00
2019-03-12T17:50:28.542Z,0.00
2019-03-12T17:51:28.591Z,0.00
2019-03-12T17:52:28.509Z,0.00
2019-03-12T17:53:28.519Z,0.00
2019-03-12T17:54:28.513Z,0.00
2019-03-12T17:55:28.484Z,0.00
2019-03-12T17:56:28.491Z,0.00
2019-03-12T17:57:28.513Z,0.00
2019-03-12T17:58:28.444Z,0.00
2019-03-12T17:59:28.431Z,0.00
2019-03-12T18:00:28.808Z,0.00
2019-03-12T18:01:30.219Z,0.00
2019-03-12T18:02:41.711Z,0.00
2019-03-12T18:03:29.422Z,0.00
2019-03-12T18:04:28.735Z,0.00
2019-03-12T18:05:28.355Z,0.00
2019-03-12T18:06:28.356Z,0.00
2019-03-12T18:07:28.340Z,0.00
2019-03-12T18:08:28.332Z,0.00
2019-03-12T18:09:28.366Z,0.00
2019-03-12T18:10:28.319Z,0.00
2019-03-12T18:11:28.287Z,0.00
2019-03-12T18:12:28.292Z,0.00
2019-03-12T18:13:28.274Z,0.00
2019-03-12T18:14:28.274Z,0.00
2019-03-12T18:15:28.331Z,0.00
2019-03-12T18:16:40.505Z,0.00
2019-03-12T18:17:29.237Z,0.00
2019-03-12T18:18:28.227Z,0.00
2019-03-12T18:19:28.217Z,0.00
2019-03-12T18:20:28.212Z,0.00
2019-03-12T18:21:28.232Z,0.00
2019-03-12T18:22:28.321Z,0.00
2019-03-12T18:23:28.173Z,0.00
2019-03-12T18:24:28.155Z,0.00
2019-03-12T18:25:28.149Z,0.00
2019-03-12T18:26:28.156Z,0.00
2019-03-12T18:27:28.182Z,0.00
2019-03-12T18:28:28.113Z,0.00
2019-03-12T18:29:28.092Z,0.00
2019-03-12T18:30:28.223Z,0.00
2019-03-12T18:31:28.070Z,0.00
2019-03-12T18:32:28.072Z,0.00
2019-03-12T18:33:28.132Z,0.00
2019-03-12T18:34:28.051Z,0.00
2019-03-12T18:35:28.037Z,0.00
2019-03-12T18:36:28.030Z,0.00
2019-03-12T18:37:28.012Z,0.00
2019-03-12T18:38:27.983Z,0.00
2019-03-12T18:39:28.013Z,0.00
2019-03-12T18:40:27.984Z,0.00
2019-03-12T18:41:27.993Z,0.00
2019-03-12T18:42:27.962Z,0.00
2019-03-12T18:43:27.962Z,0.00
2019-03-12T18:44:27.938Z,0.00
2019-03-12T18:45:27.908Z,0.00
2019-03-12T18:46:27.912Z,0.00
2019-03-12T18:47:27.938Z,0.00
2019-03-12T18:48:27.943Z,0.00
2019-03-12T18:49:27.887Z,0.00
2019-03-12T18:50:27.876Z,0.00
2019-03-12T18:51:27.850Z,0.00
2019-03-12T18:52:27.857Z,0.00
2019-03-12T18:53:27.843Z,0.00
2019-03-12T18:54:27.860Z,0.00
2019-03-12T18:55:27.809Z,0.00
2019-03-12T18:56:27.792Z,0.00
2019-03-12T18:57:27.780Z,0.00
2019-03-12T18:58:27.777Z,0.00
2019-03-12T18:59:27.773Z,0.00
2019-03-12T19:00:27.801Z,0.00
2019-03-12T19:01:27.737Z,0.00
2019-03-12T19:02:27.731Z,0.00
2019-03-12T19:03:27.730Z,0.00
2019-03-12T19:04:27.716Z,0.00
2019-03-12T19:05:28.360Z,0.00
2019-03-12T19:06:27.739Z,0.00
2019-03-12T19:07:27.662Z,0.00
2019-03-12T19:08:27.680Z,0.00
2019-03-12T19:09:27.657Z,0.00
2019-03-12T19:10:27.653Z,0.00
2019-03-12T19:11:27.618Z,0.00
2019-03-12T19:12:27.672Z,0.00
2019-03-12T19:13:27.609Z,0.00
2019-03-12T19:14:27.621Z,0.00
2019-03-12T19:15:27.598Z,0.00
2019-03-12T19:16:27.585Z,0.00
2019-03-12T19:17:27.574Z,0.00
2019-03-12T19:18:27.605Z,0.00
2019-03-12T19:19:27.591Z,0.00
2019-03-12T19:20:27.553Z,0.00
2019-03-12T19:21:28.411Z,0.00
2019-03-12T19:22:27.526Z,0.00
2019-03-12T19:23:27.503Z,0.00
2019-03-12T19:24:27.537Z,0.00
2019-03-12T19:25:27.492Z,0.00
2019-03-12T19:26:27.534Z,0.00
2019-03-12T19:27:27.449Z,0.00
2019-03-12T19:28:27.449Z,0.00
2019-03-12T19:29:27.448Z,0.00
2019-03-12T19:30:27.438Z,0.00
2019-03-12T19:31:27.410Z,0.00
2019-03-12T19:32:27.451Z,0.00
2019-03-12T19:33:27.397Z,0.00
2019-03-12T19:34:27.385Z,0.00
2019-03-12T19:35:27.388Z,0.00
2019-03-12T19:36:27.340Z,0.00
2019-03-12T19:37:27.352Z,0.00
2019-03-12T19:38:27.392Z,0.00
2019-03-12T19:39:27.332Z,0.00
2019-03-12T19:40:27.334Z,0.00
2019-03-12T19:41:27.348Z,0.00
2019-03-12T19:42:27.303Z,0.00
2019-03-12T19:43:27.267Z,0.00
2019-03-12T19:44:27.357Z,0.00
2019-03-12T19:45:27.263Z,0.00
2019-03-12T19:46:27.766Z,0.00
2019-03-12T19:47:27.728Z,0.00
2019-03-12T19:48:27.759Z,0.00
2019-03-12T19:49:27.615Z,0.00
2019-03-12T19:50:27.263Z,0.00
2019-03-12T19:51:27.213Z,0.00
2019-03-12T19:52:27.316Z,0.00
2019-03-12T19:53:27.189Z,0.00
2019-03-12T19:54:27.466Z,0.00
2019-03-12T19:55:27.155Z,0.00
2019-03-12T19:56:27.205Z,0.00
2019-03-12T19:57:27.552Z,0.00
2019-03-12T19:58:28.539Z,0.00
2019-03-12T19:59:28.222Z,0.00
2019-03-12T20:00:27.595Z,0.00
2019-03-12T20:01:27.778Z,0.00
2019-03-12T20:02:28.829Z,0.00
2019-03-12T20:03:27.786Z,0.00
2019-03-12T20:04:27.702Z,0.00
2019-03-12T20:05:28.033Z,0.00
2019-03-12T20:06:27.803Z,0.00
2019-03-12T20:07:28.130Z,0.00
2019-03-12T20:08:28.244Z,0.00
2019-03-12T20:09:27.609Z,0.00
2019-03-12T20:10:27.899Z,0.00
2019-03-12T20:11:28.336Z,0.00
2019-03-12T20:12:27.229Z,0.00
2019-03-12T20:13:27.841Z,0.00
2019-03-12T20:14:27.993Z,0.00
2019-03-12T20:15:27.325Z,0.00
2019-03-12T20:16:27.776Z,0.00
2019-03-12T20:17:26.928Z,0.00
2019-03-12T20:18:26.893Z,0.00
2019-03-12T20:19:27.464Z,0.00
2019-03-12T20:20:28.220Z,0.00
2019-03-12T20:21:27.646Z,0.00
2019-03-12T20:22:28.114Z,0.00
2019-03-12T20:23:27.779Z,0.00
2019-03-12T20:24:28.451Z,0.00
2019-03-12T20:25:27.910Z,0.00
2019-03-12T20:26:27.156Z,0.00
2019-03-12T20:27:27.482Z,0.00
2019-03-12T20:28:30.239Z,0.00
2019-03-12T20:29:27.458Z,0.00
2019-03-12T20:30:27.731Z,0.00
2019-03-12T20:31:27.441Z,0.00
2019-03-12T20:32:27.437Z,0.00
2019-03-12T20:33:27.740Z,0.00
2019-03-12T20:34:29.145Z,0.00
2019-03-12T20:35:27.627Z,0.00
2019-03-12T20:36:28.216Z,0.00
2019-03-12T20:37:27.922Z,0.00
2019-03-12T20:38:27.159Z,0.00
2019-03-12T20:39:27.376Z,0.00
2019-03-12T20:40:28.137Z,0.00
2019-03-12T20:41:27.165Z,0.00
2019-03-12T20:42:27.477Z,0.00
2019-03-12T20:43:27.825Z,0.00
2019-03-12T20:44:27.319Z,0.00
2019-03-12T20:45:27.518Z,0.00
2019-03-12T20:46:29.133Z,0.00
2019-03-12T20:47:26.577Z,0.00
2019-03-12T20:48:26.583Z,0.00
2019-03-12T20:49:26.562Z,0.00
2019-03-12T20:50:26.565Z,0.00
2019-03-12T20:51:27.282Z,0.00
2019-03-12T20:52:26.566Z,0.00
2019-03-12T20:53:26.714Z,0.00
2019-03-12T20:54:26.654Z,0.00
2019-03-12T20:55:26.576Z,0.00
2019-03-12T20:56:27.085Z,0.00
2019-03-12T20:57:27.723Z,0.00
2019-03-12T20:58:27.397Z,0.00
2019-03-12T20:59:27.955Z,0.00
2019-03-12T21:00:26.776Z,0.00
2019-03-12T21:01:28.059Z,0.00
2019-03-12T21:02:27.072Z,0.00
2019-03-12T21:03:26.522Z,0.00
2019-03-12T21:04:26.402Z,0.00
2019-03-12T21:05:26.768Z,0.00
2019-03-12T21:06:27.549Z,0.00
2019-03-12T21:07:26.881Z,0.00
2019-03-12T21:08:27.124Z,0.00
2019-03-12T21:09:28.432Z,0.00
2019-03-12T21:10:27.625Z,0.00
2019-03-12T21:11:27.073Z,0.00
2019-03-12T21:12:27.308Z,0.00
2019-03-12T21:13:26.707Z,0.00
2019-03-12T21:14:27.006Z,0.00
2019-03-12T21:15:26.269Z,0.00
2019-03-12T21:16:26.262Z,0.00
2019-03-12T21:17:26.253Z,0.00
2019-03-12T21:18:26.242Z,0.00
2019-03-12T21:19:26.947Z,0.00
2019-03-12T21:20:27.698Z,0.00
2019-03-12T21:21:26.614Z,0.00
2019-03-12T21:22:27.033Z,0.00
2019-03-12T21:23:26.706Z,0.00
2019-03-12T21:24:27.061Z,0.00
2019-03-12T21:25:27.093Z,0.00
2019-03-12T21:26:27.365Z,0.00
2019-03-12T21:27:26.868Z,0.00
2019-03-12T21:28:26.665Z,0.00
2019-03-12T21:29:26.119Z,0.00
2019-03-12T21:30:26.577Z,0.00
2019-03-12T21:31:27.197Z,0.00
2019-03-12T21:32:26.367Z,0.00
2019-03-12T21:33:26.690Z,0.00
2019-03-12T21:34:26.104Z,0.00
2019-03-12T21:35:27.430Z,0.00